sensor_id;sensor_type;location;lat;lon;timestamp;P1;durP1;ratioP1;P2;durP2;ratioP2
8349;SDS011;60699;48.946;8.412;2022-10-10T00:01:12;4.30;;;3.10;;
8349;SDS011;60699;48.946;8.412;2022-10-10T00:03:39;3.70;;;3.28;;
8349;SDS011;60699;48.946;8.412;2022-10-10T00:06:07;3.97;;;3.10;;
8349;SDS011;60699;48.946;8.412;2022-10-10T00:08:34;5.75;;;3.10;;
8349;SDS011;60699;48.946;8.412;2022-10-10T00:11:01;7.05;;;3.40;;
8349;SDS011;60699;48.946;8.412;2022-10-10T00:13:30;3.70;;;3.08;;
8349;SDS011;60699;48.946;8.412;2022-10-10T00:15:57;3.33;;;3.03;;
8349;SDS011;60699;48.946;8.412;2022-10-10T00:18:24;2.85;;;2.65;;
8349;SDS011;60699;48.946;8.412;2022-10-10T00:20:51;6.13;;;3.20;;
8349;SDS011;60699;48.946;8.412;2022-10-10T00:23:18;2.90;;;2.70;;
8349;SDS011;60699;48.946;8.412;2022-10-10T00:25:45;3.45;;;3.25;;
8349;SDS011;60699;48.946;8.412;2022-10-10T00:28:13;5.18;;;3.40;;
8349;SDS011;60699;48.946;8.412;2022-10-10T00:30:42;3.40;;;2.85;;
8349;SDS011;60699;48.946;8.412;2022-10-10T00:33:09;3.75;;;3.00;;
8349;SDS011;60699;48.946;8.412;2022-10-10T00:35:36;3.03;;;2.83;;
8349;SDS011;60699;48.946;8.412;2022-10-10T00:38:03;7.05;;;3.40;;
8349;SDS011;60699;48.946;8.412;2022-10-10T00:40:30;2.90;;;2.70;;
8349;SDS011;60699;48.946;8.412;2022-10-10T00:42:58;2.80;;;2.53;;
8349;SDS011;60699;48.946;8.412;2022-10-10T00:45:29;3.03;;;2.83;;
8349;SDS011;60699;48.946;8.412;2022-10-10T00:47:59;3.03;;;2.75;;
8349;SDS011;60699;48.946;8.412;2022-10-10T00:50:27;2.90;;;2.70;;
8349;SDS011;60699;48.946;8.412;2022-10-10T00:52:55;2.88;;;2.60;;
8349;SDS011;60699;48.946;8.412;2022-10-10T00:55:22;3.10;;;2.90;;
8349;SDS011;60699;48.946;8.412;2022-10-10T00:57:49;3.03;;;2.83;;
8349;SDS011;60699;48.946;8.412;2022-10-10T01:00:18;3.25;;;3.05;;
8349;SDS011;60699;48.946;8.412;2022-10-10T01:02:45;3.10;;;2.75;;
8349;SDS011;60699;48.946;8.412;2022-10-10T01:05:14;4.03;;;3.03;;
8349;SDS011;60699;48.946;8.412;2022-10-10T01:07:41;3.38;;;2.90;;
8349;SDS011;60699;48.946;8.412;2022-10-10T01:10:10;3.85;;;3.45;;
8349;SDS011;60699;48.946;8.412;2022-10-10T01:12:42;3.42;;;2.92;;
8349;SDS011;60699;48.946;8.412;2022-10-10T01:15:12;4.15;;;3.10;;
8349;SDS011;60699;48.946;8.412;2022-10-10T01:17:43;2.85;;;2.65;;
8349;SDS011;60699;48.946;8.412;2022-10-10T01:20:25;2.75;;;2.60;;
8349;SDS011;60699;48.946;8.412;2022-10-10T01:23:00;2.65;;;2.25;;
8349;SDS011;60699;48.946;8.412;2022-10-10T01:25:31;3.28;;;2.53;;
8349;SDS011;60699;48.946;8.412;2022-10-10T01:28:06;3.85;;;3.55;;
8349;SDS011;60699;48.946;8.412;2022-10-10T01:30:37;2.88;;;2.60;;
8349;SDS011;60699;48.946;8.412;2022-10-10T01:33:07;5.00;;;3.28;;
8349;SDS011;60699;48.946;8.412;2022-10-10T01:35:40;2.50;;;2.38;;
8349;SDS011;60699;48.946;8.412;2022-10-10T01:38:12;3.90;;;2.75;;
8349;SDS011;60699;48.946;8.412;2022-10-10T01:40:43;3.58;;;3.28;;
8349;SDS011;60699;48.946;8.412;2022-10-10T01:43:11;4.25;;;3.22;;
8349;SDS011;60699;48.946;8.412;2022-10-10T01:45:43;2.38;;;2.22;;
8349;SDS011;60699;48.946;8.412;2022-10-10T01:48:10;3.70;;;3.40;;
8349;SDS011;60699;48.946;8.412;2022-10-10T01:50:40;2.78;;;2.55;;
8349;SDS011;60699;48.946;8.412;2022-10-10T01:53:10;3.10;;;2.80;;
8349;SDS011;60699;48.946;8.412;2022-10-10T01:55:46;3.28;;;2.95;;
8349;SDS011;60699;48.946;8.412;2022-10-10T01:58:21;2.90;;;2.70;;
8349;SDS011;60699;48.946;8.412;2022-10-10T02:00:57;3.30;;;3.08;;
8349;SDS011;60699;48.946;8.412;2022-10-10T02:03:26;2.80;;;2.60;;
8349;SDS011;60699;48.946;8.412;2022-10-10T02:05:56;2.60;;;2.40;;
8349;SDS011;60699;48.946;8.412;2022-10-10T02:08:25;3.85;;;2.88;;
8349;SDS011;60699;48.946;8.412;2022-10-10T02:10:55;5.85;;;2.50;;
8349;SDS011;60699;48.946;8.412;2022-10-10T02:13:25;13.65;;;3.05;;
8349;SDS011;60699;48.946;8.412;2022-10-10T02:15:54;4.55;;;2.90;;
8349;SDS011;60699;48.946;8.412;2022-10-10T02:18:24;2.58;;;2.38;;
8349;SDS011;60699;48.946;8.412;2022-10-10T02:20:51;4.50;;;2.97;;
8349;SDS011;60699;48.946;8.412;2022-10-10T02:23:19;4.05;;;2.90;;
8349;SDS011;60699;48.946;8.412;2022-10-10T02:25:49;4.20;;;3.85;;
8349;SDS011;60699;48.946;8.412;2022-10-10T02:28:19;3.03;;;2.72;;
8349;SDS011;60699;48.946;8.412;2022-10-10T02:30:47;2.83;;;2.58;;
8349;SDS011;60699;48.946;8.412;2022-10-10T02:33:17;4.97;;;3.30;;
8349;SDS011;60699;48.946;8.412;2022-10-10T02:35:46;6.97;;;3.83;;
8349;SDS011;60699;48.946;8.412;2022-10-10T02:38:14;2.33;;;2.22;;
8349;SDS011;60699;48.946;8.412;2022-10-10T02:40:41;3.35;;;3.08;;
8349;SDS011;60699;48.946;8.412;2022-10-10T02:43:10;3.85;;;2.70;;
8349;SDS011;60699;48.946;8.412;2022-10-10T02:45:38;3.22;;;2.70;;
8349;SDS011;60699;48.946;8.412;2022-10-10T02:48:05;3.33;;;3.13;;
8349;SDS011;60699;48.946;8.412;2022-10-10T02:50:32;3.95;;;3.20;;
8349;SDS011;60699;48.946;8.412;2022-10-10T02:53:01;3.92;;;3.05;;
8349;SDS011;60699;48.946;8.412;2022-10-10T02:55:28;3.15;;;2.95;;
8349;SDS011;60699;48.946;8.412;2022-10-10T02:57:55;4.22;;;3.05;;
8349;SDS011;60699;48.946;8.412;2022-10-10T03:00:22;3.58;;;3.28;;
8349;SDS011;60699;48.946;8.412;2022-10-10T03:02:49;3.50;;;2.85;;
8349;SDS011;60699;48.946;8.412;2022-10-10T03:05:16;4.50;;;3.25;;
8349;SDS011;60699;48.946;8.412;2022-10-10T03:07:43;2.90;;;2.70;;
8349;SDS011;60699;48.946;8.412;2022-10-10T03:10:12;3.10;;;2.85;;
8349;SDS011;60699;48.946;8.412;2022-10-10T03:12:39;6.65;;;3.30;;
8349;SDS011;60699;48.946;8.412;2022-10-10T03:15:06;4.90;;;2.80;;
8349;SDS011;60699;48.946;8.412;2022-10-10T03:17:33;2.65;;;2.50;;
8349;SDS011;60699;48.946;8.412;2022-10-10T03:20:00;3.50;;;3.20;;
8349;SDS011;60699;48.946;8.412;2022-10-10T03:22:27;3.92;;;3.63;;
8349;SDS011;60699;48.946;8.412;2022-10-10T03:24:54;3.10;;;2.90;;
8349;SDS011;60699;48.946;8.412;2022-10-10T03:27:23;4.32;;;3.85;;
8349;SDS011;60699;48.946;8.412;2022-10-10T03:29:50;3.20;;;3.00;;
8349;SDS011;60699;48.946;8.412;2022-10-10T03:32:17;3.22;;;3.00;;
8349;SDS011;60699;48.946;8.412;2022-10-10T03:34:44;3.60;;;3.05;;
8349;SDS011;60699;48.946;8.412;2022-10-10T03:37:11;3.55;;;3.25;;
8349;SDS011;60699;48.946;8.412;2022-10-10T03:39:38;3.78;;;2.90;;
8349;SDS011;60699;48.946;8.412;2022-10-10T03:42:05;3.30;;;3.00;;
8349;SDS011;60699;48.946;8.412;2022-10-10T03:44:34;3.70;;;3.38;;
8349;SDS011;60699;48.946;8.412;2022-10-10T03:47:01;4.53;;;3.17;;
8349;SDS011;60699;48.946;8.412;2022-10-10T03:49:28;3.20;;;3.00;;
8349;SDS011;60699;48.946;8.412;2022-10-10T03:51:55;3.83;;;3.53;;
8349;SDS011;60699;48.946;8.412;2022-10-10T03:54:22;3.78;;;3.13;;
8349;SDS011;60699;48.946;8.412;2022-10-10T03:56:49;3.28;;;3.08;;
8349;SDS011;60699;48.946;8.412;2022-10-10T03:59:16;3.10;;;2.55;;
8349;SDS011;60699;48.946;8.412;2022-10-10T04:01:44;3.03;;;2.72;;
8349;SDS011;60699;48.946;8.412;2022-10-10T04:04:11;6.43;;;3.67;;
8349;SDS011;60699;48.946;8.412;2022-10-10T04:06:38;3.38;;;3.05;;
8349;SDS011;60699;48.946;8.412;2022-10-10T04:09:05;10.52;;;3.10;;
8349;SDS011;60699;48.946;8.412;2022-10-10T04:11:33;6.10;;;3.97;;
8349;SDS011;60699;48.946;8.412;2022-10-10T04:14:02;3.83;;;3.55;;
8349;SDS011;60699;48.946;8.412;2022-10-10T04:16:29;3.15;;;2.95;;
8349;SDS011;60699;48.946;8.412;2022-10-10T04:18:58;4.50;;;3.00;;
8349;SDS011;60699;48.946;8.412;2022-10-10T04:21:25;3.08;;;2.88;;
8349;SDS011;60699;48.946;8.412;2022-10-10T04:23:52;3.10;;;2.90;;
8349;SDS011;60699;48.946;8.412;2022-10-10T04:26:19;3.55;;;2.80;;
8349;SDS011;60699;48.946;8.412;2022-10-10T04:28:46;3.53;;;3.20;;
8349;SDS011;60699;48.946;8.412;2022-10-10T04:31:13;3.03;;;2.80;;
8349;SDS011;60699;48.946;8.412;2022-10-10T04:33:40;3.78;;;3.47;;
8349;SDS011;60699;48.946;8.412;2022-10-10T04:36:08;2.72;;;2.53;;
8349;SDS011;60699;48.946;8.412;2022-10-10T04:38:35;2.78;;;2.58;;
8349;SDS011;60699;48.946;8.412;2022-10-10T04:41:02;3.30;;;3.00;;
8349;SDS011;60699;48.946;8.412;2022-10-10T04:43:30;3.42;;;3.13;;
8349;SDS011;60699;48.946;8.412;2022-10-10T04:45:57;3.00;;;2.80;;
8349;SDS011;60699;48.946;8.412;2022-10-10T04:48:24;3.35;;;3.13;;
8349;SDS011;60699;48.946;8.412;2022-10-10T04:50:51;3.47;;;3.05;;
8349;SDS011;60699;48.946;8.412;2022-10-10T04:53:20;3.58;;;3.28;;
8349;SDS011;60699;48.946;8.412;2022-10-10T04:55:47;6.10;;;3.60;;
8349;SDS011;60699;48.946;8.412;2022-10-10T04:58:14;3.55;;;3.20;;
8349;SDS011;60699;48.946;8.412;2022-10-10T05:00:41;8.15;;;3.58;;
8349;SDS011;60699;48.946;8.412;2022-10-10T05:03:08;3.80;;;3.45;;
8349;SDS011;60699;48.946;8.412;2022-10-10T05:05:36;3.00;;;2.80;;
8349;SDS011;60699;48.946;8.412;2022-10-10T05:08:04;4.20;;;3.58;;
8349;SDS011;60699;48.946;8.412;2022-10-10T05:10:35;2.97;;;2.65;;
8349;SDS011;60699;48.946;8.412;2022-10-10T05:13:02;5.95;;;3.15;;
8349;SDS011;60699;48.946;8.412;2022-10-10T05:15:32;4.68;;;3.45;;
8349;SDS011;60699;48.946;8.412;2022-10-10T05:17:59;3.20;;;2.90;;
8349;SDS011;60699;48.946;8.412;2022-10-10T05:20:26;3.42;;;3.20;;
8349;SDS011;60699;48.946;8.412;2022-10-10T05:22:53;3.78;;;3.42;;
8349;SDS011;60699;48.946;8.412;2022-10-10T05:25:20;6.82;;;4.60;;
8349;SDS011;60699;48.946;8.412;2022-10-10T05:27:49;5.97;;;3.88;;
8349;SDS011;60699;48.946;8.412;2022-10-10T05:30:16;4.10;;;3.70;;
8349;SDS011;60699;48.946;8.412;2022-10-10T05:32:43;4.00;;;3.60;;
8349;SDS011;60699;48.946;8.412;2022-10-10T05:35:10;4.47;;;3.95;;
8349;SDS011;60699;48.946;8.412;2022-10-10T05:37:37;3.88;;;3.50;;
8349;SDS011;60699;48.946;8.412;2022-10-10T05:40:05;9.02;;;3.55;;
8349;SDS011;60699;48.946;8.412;2022-10-10T05:42:32;15.00;;;4.20;;
8349;SDS011;60699;48.946;8.412;2022-10-10T05:45:00;4.10;;;3.80;;
8349;SDS011;60699;48.946;8.412;2022-10-10T05:47:27;4.20;;;3.90;;
8349;SDS011;60699;48.946;8.412;2022-10-10T05:49:55;5.40;;;3.97;;
8349;SDS011;60699;48.946;8.412;2022-10-10T05:52:22;4.88;;;4.47;;
8349;SDS011;60699;48.946;8.412;2022-10-10T05:54:49;9.05;;;4.60;;
8349;SDS011;60699;48.946;8.412;2022-10-10T05:57:16;4.40;;;4.00;;
8349;SDS011;60699;48.946;8.412;2022-10-10T05:59:43;7.32;;;4.03;;
8349;SDS011;60699;48.946;8.412;2022-10-10T06:02:12;5.35;;;4.50;;
8349;SDS011;60699;48.946;8.412;2022-10-10T06:04:39;4.35;;;4.00;;
8349;SDS011;60699;48.946;8.412;2022-10-10T06:07:07;3.67;;;3.33;;
8349;SDS011;60699;48.946;8.412;2022-10-10T06:09:34;3.45;;;3.20;;
8349;SDS011;60699;48.946;8.412;2022-10-10T06:12:01;10.27;;;4.30;;
8349;SDS011;60699;48.946;8.412;2022-10-10T06:14:28;3.90;;;3.55;;
8349;SDS011;60699;48.946;8.412;2022-10-10T06:16:55;5.57;;;3.50;;
8349;SDS011;60699;48.946;8.412;2022-10-10T06:19:24;4.40;;;4.00;;
8349;SDS011;60699;48.946;8.412;2022-10-10T06:21:51;4.40;;;3.55;;
8349;SDS011;60699;48.946;8.412;2022-10-10T06:24:18;3.95;;;3.60;;
8349;SDS011;60699;48.946;8.412;2022-10-10T06:26:45;4.97;;;4.07;;
8349;SDS011;60699;48.946;8.412;2022-10-10T06:29:12;7.25;;;3.75;;
8349;SDS011;60699;48.946;8.412;2022-10-10T06:31:39;4.40;;;3.70;;
8349;SDS011;60699;48.946;8.412;2022-10-10T06:34:06;5.65;;;3.85;;
8349;SDS011;60699;48.946;8.412;2022-10-10T06:36:34;3.45;;;3.15;;
8349;SDS011;60699;48.946;8.412;2022-10-10T06:39:01;4.18;;;3.88;;
8349;SDS011;60699;48.946;8.412;2022-10-10T06:41:28;5.30;;;3.78;;
8349;SDS011;60699;48.946;8.412;2022-10-10T06:43:56;3.78;;;3.40;;
8349;SDS011;60699;48.946;8.412;2022-10-10T06:46:23;7.10;;;4.15;;
8349;SDS011;60699;48.946;8.412;2022-10-10T06:48:50;5.00;;;4.35;;
8349;SDS011;60699;48.946;8.412;2022-10-10T06:51:17;3.92;;;3.08;;
8349;SDS011;60699;48.946;8.412;2022-10-10T06:53:45;3.67;;;3.17;;
8349;SDS011;60699;48.946;8.412;2022-10-10T06:56:13;4.47;;;3.42;;
8349;SDS011;60699;48.946;8.412;2022-10-10T06:58:45;5.68;;;3.55;;
8349;SDS011;60699;48.946;8.412;2022-10-10T07:01:12;4.30;;;3.90;;
8349;SDS011;60699;48.946;8.412;2022-10-10T07:03:39;3.72;;;3.42;;
8349;SDS011;60699;48.946;8.412;2022-10-10T07:06:07;8.52;;;4.40;;
8349;SDS011;60699;48.946;8.412;2022-10-10T07:08:34;4.03;;;3.72;;
8349;SDS011;60699;48.946;8.412;2022-10-10T07:11:03;5.18;;;4.40;;
8349;SDS011;60699;48.946;8.412;2022-10-10T07:13:31;5.70;;;4.07;;
8349;SDS011;60699;48.946;8.412;2022-10-10T07:15:58;3.60;;;3.30;;
8349;SDS011;60699;48.946;8.412;2022-10-10T07:18:26;4.80;;;3.25;;
8349;SDS011;60699;48.946;8.412;2022-10-10T07:20:54;4.32;;;3.47;;
8349;SDS011;60699;48.946;8.412;2022-10-10T07:23:21;8.80;;;3.53;;
8349;SDS011;60699;48.946;8.412;2022-10-10T07:25:49;5.78;;;3.72;;
8349;SDS011;60699;48.946;8.412;2022-10-10T07:28:17;4.97;;;4.00;;
8349;SDS011;60699;48.946;8.412;2022-10-10T07:30:45;11.73;;;7.00;;
8349;SDS011;60699;48.946;8.412;2022-10-10T07:33:12;11.63;;;7.22;;
8349;SDS011;60699;48.946;8.412;2022-10-10T07:35:39;10.90;;;6.47;;
8349;SDS011;60699;48.946;8.412;2022-10-10T07:38:07;7.80;;;5.13;;
8349;SDS011;60699;48.946;8.412;2022-10-10T07:40:34;5.80;;;3.80;;
8349;SDS011;60699;48.946;8.412;2022-10-10T07:43:01;5.00;;;3.20;;
8349;SDS011;60699;48.946;8.412;2022-10-10T07:45:29;4.03;;;3.55;;
8349;SDS011;60699;48.946;8.412;2022-10-10T07:47:56;4.45;;;4.05;;
8349;SDS011;60699;48.946;8.412;2022-10-10T07:50:23;4.00;;;3.70;;
8349;SDS011;60699;48.946;8.412;2022-10-10T07:52:50;4.40;;;3.88;;
8349;SDS011;60699;48.946;8.412;2022-10-10T07:55:17;5.57;;;5.00;;
8349;SDS011;60699;48.946;8.412;2022-10-10T07:57:44;4.30;;;3.90;;
8349;SDS011;60699;48.946;8.412;2022-10-10T08:00:12;6.88;;;4.47;;
8349;SDS011;60699;48.946;8.412;2022-10-10T08:02:41;4.78;;;4.38;;
8349;SDS011;60699;48.946;8.412;2022-10-10T08:05:08;5.35;;;4.85;;
8349;SDS011;60699;48.946;8.412;2022-10-10T08:07:36;6.30;;;5.35;;
8349;SDS011;60699;48.946;8.412;2022-10-10T08:10:03;4.35;;;3.95;;
8349;SDS011;60699;48.946;8.412;2022-10-10T08:12:32;12.73;;;4.25;;
8349;SDS011;60699;48.946;8.412;2022-10-10T08:14:59;5.03;;;4.63;;
8349;SDS011;60699;48.946;8.412;2022-10-10T08:17:26;5.50;;;3.80;;
8349;SDS011;60699;48.946;8.412;2022-10-10T08:19:54;4.43;;;4.13;;
8349;SDS011;60699;48.946;8.412;2022-10-10T08:22:21;7.70;;;4.50;;
8349;SDS011;60699;48.946;8.412;2022-10-10T08:24:48;4.85;;;4.20;;
8349;SDS011;60699;48.946;8.412;2022-10-10T08:27:15;5.35;;;4.18;;
8349;SDS011;60699;48.946;8.412;2022-10-10T08:29:43;4.65;;;4.20;;
8349;SDS011;60699;48.946;8.412;2022-10-10T08:32:10;5.10;;;3.83;;
8349;SDS011;60699;48.946;8.412;2022-10-10T08:34:37;5.53;;;4.60;;
8349;SDS011;60699;48.946;8.412;2022-10-10T08:37:05;9.60;;;4.65;;
8349;SDS011;60699;48.946;8.412;2022-10-10T08:39:32;5.53;;;4.15;;
8349;SDS011;60699;48.946;8.412;2022-10-10T08:42:00;7.25;;;4.80;;
8349;SDS011;60699;48.946;8.412;2022-10-10T08:44:28;5.85;;;5.25;;
8349;SDS011;60699;48.946;8.412;2022-10-10T08:46:57;9.40;;;5.47;;
8349;SDS011;60699;48.946;8.412;2022-10-10T08:49:26;4.55;;;4.15;;
8349;SDS011;60699;48.946;8.412;2022-10-10T08:51:57;7.05;;;6.35;;
8349;SDS011;60699;48.946;8.412;2022-10-10T08:54:26;8.18;;;5.85;;
8349;SDS011;60699;48.946;8.412;2022-10-10T08:56:55;5.70;;;4.95;;
8349;SDS011;60699;48.946;8.412;2022-10-10T08:59:24;6.60;;;5.05;;
8349;SDS011;60699;48.946;8.412;2022-10-10T09:01:54;5.35;;;4.85;;
8349;SDS011;60699;48.946;8.412;2022-10-10T09:04:23;7.70;;;4.90;;
8349;SDS011;60699;48.946;8.412;2022-10-10T09:06:56;6.47;;;5.35;;
8349;SDS011;60699;48.946;8.412;2022-10-10T09:09:29;6.05;;;5.55;;
8349;SDS011;60699;48.946;8.412;2022-10-10T09:12:04;8.55;;;6.97;;
8349;SDS011;60699;48.946;8.412;2022-10-10T09:14:33;9.80;;;6.10;;
8349;SDS011;60699;48.946;8.412;2022-10-10T09:17:02;6.63;;;5.78;;
8349;SDS011;60699;48.946;8.412;2022-10-10T09:19:35;6.40;;;4.60;;
8349;SDS011;60699;48.946;8.412;2022-10-10T09:22:08;7.40;;;5.53;;
8349;SDS011;60699;48.946;8.412;2022-10-10T09:24:39;7.00;;;5.35;;
8349;SDS011;60699;48.946;8.412;2022-10-10T09:27:09;6.20;;;5.60;;
8349;SDS011;60699;48.946;8.412;2022-10-10T09:29:39;6.55;;;5.50;;
8349;SDS011;60699;48.946;8.412;2022-10-10T09:32:08;6.57;;;5.90;;
8349;SDS011;60699;48.946;8.412;2022-10-10T09:34:37;10.10;;;6.18;;
8349;SDS011;60699;48.946;8.412;2022-10-10T09:37:08;8.15;;;5.53;;
8349;SDS011;60699;48.946;8.412;2022-10-10T09:39:39;6.93;;;6.22;;
8349;SDS011;60699;48.946;8.412;2022-10-10T09:42:08;8.45;;;5.85;;
8349;SDS011;60699;48.946;8.412;2022-10-10T09:44:36;6.07;;;5.47;;
8349;SDS011;60699;48.946;8.412;2022-10-10T09:47:04;7.53;;;4.90;;
8349;SDS011;60699;48.946;8.412;2022-10-10T09:49:31;7.57;;;5.33;;
8349;SDS011;60699;48.946;8.412;2022-10-10T09:51:59;6.33;;;5.73;;
8349;SDS011;60699;48.946;8.412;2022-10-10T09:54:27;6.50;;;5.90;;
8349;SDS011;60699;48.946;8.412;2022-10-10T09:56:56;5.47;;;4.93;;
8349;SDS011;60699;48.946;8.412;2022-10-10T09:59:36;6.65;;;5.95;;
8349;SDS011;60699;48.946;8.412;2022-10-10T10:02:10;5.43;;;4.60;;
8349;SDS011;60699;48.946;8.412;2022-10-10T10:04:38;5.70;;;5.20;;
8349;SDS011;60699;48.946;8.412;2022-10-10T10:07:05;4.35;;;4.05;;
8349;SDS011;60699;48.946;8.412;2022-10-10T10:09:33;6.50;;;5.80;;
8349;SDS011;60699;48.946;8.412;2022-10-10T10:12:01;5.30;;;4.27;;
8349;SDS011;60699;48.946;8.412;2022-10-10T10:14:31;5.77;;;4.57;;
8349;SDS011;60699;48.946;8.412;2022-10-10T10:17:04;5.57;;;4.03;;
8349;SDS011;60699;48.946;8.412;2022-10-10T10:19:32;5.07;;;4.57;;
8349;SDS011;60699;48.946;8.412;2022-10-10T10:21:59;9.40;;;4.00;;
8349;SDS011;60699;48.946;8.412;2022-10-10T10:24:30;7.50;;;4.83;;
8349;SDS011;60699;48.946;8.412;2022-10-10T10:27:08;6.00;;;4.10;;
8349;SDS011;60699;48.946;8.412;2022-10-10T10:29:35;5.90;;;4.40;;
8349;SDS011;60699;48.946;8.412;2022-10-10T10:32:04;6.83;;;4.60;;
8349;SDS011;60699;48.946;8.412;2022-10-10T10:34:39;5.57;;;5.03;;
8349;SDS011;60699;48.946;8.412;2022-10-10T10:37:14;5.10;;;4.27;;
8349;SDS011;60699;48.946;8.412;2022-10-10T10:39:44;3.90;;;3.47;;
8349;SDS011;60699;48.946;8.412;2022-10-10T10:42:20;4.87;;;4.10;;
8349;SDS011;60699;48.946;8.412;2022-10-10T10:44:54;3.87;;;3.47;;
8349;SDS011;60699;48.946;8.412;2022-10-10T10:47:28;4.60;;;4.20;;
8349;SDS011;60699;48.946;8.412;2022-10-10T10:50:04;3.37;;;3.07;;
8349;SDS011;60699;48.946;8.412;2022-10-10T10:52:36;4.53;;;3.90;;
8349;SDS011;60699;48.946;8.412;2022-10-10T10:55:13;5.83;;;3.50;;
8349;SDS011;60699;48.946;8.412;2022-10-10T10:57:46;5.20;;;3.50;;
8349;SDS011;60699;48.946;8.412;2022-10-10T11:00:15;5.43;;;3.87;;
8349;SDS011;60699;48.946;8.412;2022-10-10T11:02:46;4.10;;;3.33;;
8349;SDS011;60699;48.946;8.412;2022-10-10T11:05:31;4.07;;;3.73;;
8349;SDS011;60699;48.946;8.412;2022-10-10T11:08:02;5.93;;;3.03;;
8349;SDS011;60699;48.946;8.412;2022-10-10T11:10:33;4.73;;;3.87;;
8349;SDS011;60699;48.946;8.412;2022-10-10T11:13:05;3.87;;;3.50;;
8349;SDS011;60699;48.946;8.412;2022-10-10T11:15:35;2.70;;;2.50;;
8349;SDS011;60699;48.946;8.412;2022-10-10T11:18:05;6.20;;;2.90;;
8349;SDS011;60699;48.946;8.412;2022-10-10T11:20:37;2.37;;;2.27;;
8349;SDS011;60699;48.946;8.412;2022-10-10T11:23:09;4.20;;;3.80;;
8349;SDS011;60699;48.946;8.412;2022-10-10T11:25:40;3.10;;;2.90;;
8349;SDS011;60699;48.946;8.412;2022-10-10T11:28:10;2.90;;;2.57;;
8349;SDS011;60699;48.946;8.412;2022-10-10T11:30:39;7.03;;;2.80;;
8349;SDS011;60699;48.946;8.412;2022-10-10T11:33:09;3.60;;;3.00;;
8349;SDS011;60699;48.946;8.412;2022-10-10T11:35:39;2.93;;;2.50;;
8349;SDS011;60699;48.946;8.412;2022-10-10T11:38:10;5.97;;;2.70;;
8349;SDS011;60699;48.946;8.412;2022-10-10T11:40:41;4.53;;;3.07;;
8349;SDS011;60699;48.946;8.412;2022-10-10T11:43:14;3.73;;;3.10;;
8349;SDS011;60699;48.946;8.412;2022-10-10T11:45:44;5.27;;;2.83;;
8349;SDS011;60699;48.946;8.412;2022-10-10T11:48:14;6.53;;;3.50;;
8349;SDS011;60699;48.946;8.412;2022-10-10T11:50:44;4.00;;;3.57;;
8349;SDS011;60699;48.946;8.412;2022-10-10T11:53:16;4.70;;;3.07;;
8349;SDS011;60699;48.946;8.412;2022-10-10T11:55:47;6.13;;;3.40;;
8349;SDS011;60699;48.946;8.412;2022-10-10T11:58:21;4.23;;;2.50;;
8349;SDS011;60699;48.946;8.412;2022-10-10T12:00:51;2.80;;;2.60;;
8349;SDS011;60699;48.946;8.412;2022-10-10T12:03:20;6.80;;;3.00;;
8349;SDS011;60699;48.946;8.412;2022-10-10T12:05:48;4.80;;;4.40;;
8349;SDS011;60699;48.946;8.412;2022-10-10T12:08:16;5.07;;;3.70;;
8349;SDS011;60699;48.946;8.412;2022-10-10T12:10:45;3.77;;;2.83;;
8349;SDS011;60699;48.946;8.412;2022-10-10T12:13:18;7.67;;;3.40;;
8349;SDS011;60699;48.946;8.412;2022-10-10T12:15:50;4.20;;;2.80;;
8349;SDS011;60699;48.946;8.412;2022-10-10T12:18:24;5.77;;;3.70;;
8349;SDS011;60699;48.946;8.412;2022-10-10T12:21:01;3.00;;;2.47;;
8349;SDS011;60699;48.946;8.412;2022-10-10T12:23:29;3.90;;;2.70;;
8349;SDS011;60699;48.946;8.412;2022-10-10T12:25:57;5.03;;;2.77;;
8349;SDS011;60699;48.946;8.412;2022-10-10T12:28:26;2.70;;;2.50;;
8349;SDS011;60699;48.946;8.412;2022-10-10T12:34:00;4.40;;;2.73;;
8349;SDS011;60699;48.946;8.412;2022-10-10T12:41:58;6.80;;;4.00;;
8349;SDS011;60699;48.946;8.412;2022-10-10T12:44:41;3.40;;;3.10;;
8349;SDS011;60699;48.946;8.412;2022-10-10T12:47:26;5.77;;;2.67;;
8349;SDS011;60699;48.946;8.412;2022-10-10T12:49:55;5.93;;;2.67;;
8349;SDS011;60699;48.946;8.412;2022-10-10T12:52:23;8.13;;;3.23;;
8349;SDS011;60699;48.946;8.412;2022-10-10T12:54:53;5.37;;;3.17;;
8349;SDS011;60699;48.946;8.412;2022-10-10T12:57:23;8.50;;;2.67;;
8349;SDS011;60699;48.946;8.412;2022-10-10T12:59:51;7.70;;;3.87;;
8349;SDS011;60699;48.946;8.412;2022-10-10T13:02:19;6.90;;;3.00;;
8349;SDS011;60699;48.946;8.412;2022-10-10T13:04:48;9.93;;;3.90;;
8349;SDS011;60699;48.946;8.412;2022-10-10T13:07:18;2.77;;;2.33;;
8349;SDS011;60699;48.946;8.412;2022-10-10T13:09:47;4.00;;;2.50;;
8349;SDS011;60699;48.946;8.412;2022-10-10T13:12:20;10.37;;;2.80;;
8349;SDS011;60699;48.946;8.412;2022-10-10T13:14:47;6.20;;;2.43;;
8349;SDS011;60699;48.946;8.412;2022-10-10T13:17:18;5.77;;;3.00;;
8349;SDS011;60699;48.946;8.412;2022-10-10T13:19:46;13.40;;;3.63;;
8349;SDS011;60699;48.946;8.412;2022-10-10T13:22:13;7.60;;;3.07;;
8349;SDS011;60699;48.946;8.412;2022-10-10T13:24:43;4.40;;;2.90;;
8349;SDS011;60699;48.946;8.412;2022-10-10T13:27:14;4.43;;;3.30;;
8349;SDS011;60699;48.946;8.412;2022-10-10T13:29:42;6.03;;;2.57;;
8349;SDS011;60699;48.946;8.412;2022-10-10T13:32:11;3.43;;;3.07;;
8349;SDS011;60699;48.946;8.412;2022-10-10T13:34:41;5.10;;;2.70;;
8349;SDS011;60699;48.946;8.412;2022-10-10T13:37:10;4.53;;;3.20;;
8349;SDS011;60699;48.946;8.412;2022-10-10T13:39:39;5.17;;;2.90;;
8349;SDS011;60699;48.946;8.412;2022-10-10T13:42:23;4.77;;;2.70;;
8349;SDS011;60699;48.946;8.412;2022-10-10T13:44:52;5.80;;;2.87;;
8349;SDS011;60699;48.946;8.412;2022-10-10T13:47:38;9.80;;;3.67;;
8349;SDS011;60699;48.946;8.412;2022-10-10T13:50:15;7.00;;;3.17;;
8349;SDS011;60699;48.946;8.412;2022-10-10T13:52:43;3.30;;;3.00;;
8349;SDS011;60699;48.946;8.412;2022-10-10T13:55:14;4.13;;;3.10;;
8349;SDS011;60699;48.946;8.412;2022-10-10T13:57:42;6.23;;;3.20;;
8349;SDS011;60699;48.946;8.412;2022-10-10T14:00:14;7.53;;;3.10;;
8349;SDS011;60699;48.946;8.412;2022-10-10T14:02:41;9.13;;;3.23;;
8349;SDS011;60699;48.946;8.412;2022-10-10T14:05:12;4.70;;;3.33;;
8349;SDS011;60699;48.946;8.412;2022-10-10T14:07:44;5.90;;;3.63;;
8349;SDS011;60699;48.946;8.412;2022-10-10T14:10:12;4.23;;;2.73;;
8349;SDS011;60699;48.946;8.412;2022-10-10T14:12:41;6.60;;;3.87;;
8349;SDS011;60699;48.946;8.412;2022-10-10T14:17:52;4.47;;;2.97;;
8349;SDS011;60699;48.946;8.412;2022-10-10T14:20:19;4.60;;;2.93;;
8349;SDS011;60699;48.946;8.412;2022-10-10T14:22:46;10.83;;;3.10;;
8349;SDS011;60699;48.946;8.412;2022-10-10T14:25:13;9.83;;;3.30;;
8349;SDS011;60699;48.946;8.412;2022-10-10T14:27:40;4.03;;;2.87;;
8349;SDS011;60699;48.946;8.412;2022-10-10T14:30:09;4.10;;;2.70;;
8349;SDS011;60699;48.946;8.412;2022-10-10T14:32:39;10.77;;;3.67;;
8349;SDS011;60699;48.946;8.412;2022-10-10T14:35:08;3.03;;;2.73;;
8349;SDS011;60699;48.946;8.412;2022-10-10T14:37:35;7.87;;;3.87;;
8349;SDS011;60699;48.946;8.412;2022-10-10T14:40:04;6.87;;;2.87;;
8349;SDS011;60699;48.946;8.412;2022-10-10T14:42:38;7.00;;;5.83;;
8349;SDS011;60699;48.946;8.412;2022-10-10T14:45:05;6.80;;;3.13;;
8349;SDS011;60699;48.946;8.412;2022-10-10T14:47:32;7.23;;;3.50;;
8349;SDS011;60699;48.946;8.412;2022-10-10T14:49:59;6.93;;;3.40;;
8349;SDS011;60699;48.946;8.412;2022-10-10T14:52:28;4.80;;;3.27;;
8349;SDS011;60699;48.946;8.412;2022-10-10T14:54:55;5.70;;;2.90;;
8349;SDS011;60699;48.946;8.412;2022-10-10T14:57:22;7.30;;;3.00;;
8349;SDS011;60699;48.946;8.412;2022-10-10T14:59:49;4.17;;;2.90;;
8349;SDS011;60699;48.946;8.412;2022-10-10T15:02:17;4.27;;;3.10;;
8349;SDS011;60699;48.946;8.412;2022-10-10T15:04:44;10.67;;;5.90;;
8349;SDS011;60699;48.946;8.412;2022-10-10T15:07:11;10.00;;;3.10;;
8349;SDS011;60699;48.946;8.412;2022-10-10T15:09:39;4.87;;;3.50;;
8349;SDS011;60699;48.946;8.412;2022-10-10T15:12:06;10.60;;;5.13;;
8349;SDS011;60699;48.946;8.412;2022-10-10T15:14:33;8.60;;;3.43;;
8349;SDS011;60699;48.946;8.412;2022-10-10T15:17:00;6.30;;;3.87;;
8349;SDS011;60699;48.946;8.412;2022-10-10T15:19:27;5.53;;;3.13;;
8349;SDS011;60699;48.946;8.412;2022-10-10T15:21:55;4.60;;;2.93;;